Time;durP1;ratioP1;P1;durP2;ratioP2;P2;SDS_P1;SDS_P2;PMS_P1;PMS_P2;Temp;Humidity;BMP_temperature;BMP_pressure;BME280_temperature;BME280_humidity;BME280_pressure;Samples;Min_cycle;Max_cycle;Signal;HPM_P1;HPM_P2
2023/12/08 09:44:20;;;;;;;14.95;7.05;;;18.20;52.70;;;;;;3127315;27;20374;-46
2023/12/08 09:45:50;;;;;;;;;;;19.70;45.50;;;;;;3123762;28;20042;-46
2023/12/08 09:47:22;;;;;;;25.02;7.80;;;20.50;43.20;;;;;;3120556;28;19922;-47
2023/12/08 09:48:54;;;;;;;18.42;7.72;;;20.90;41.30;;;;;;3121390;28;20487;-45
2023/12/08 09:52:05;;;;;;;10.50;7.22;;;21.60;44.80;;;;;;3155653;27;20403;-38
2023/12/08 09:53:37;;;;;;;16.73;7.47;;;21.70;39.00;;;;;;3152933;28;20056;-39
2023/12/08 09:55:09;;;;;;;17.88;7.90;;;21.90;38.50;;;;;;3143319;28;20506;-39
2023/12/08 09:56:40;;;;;;;8.77;6.82;;;22.00;38.00;;;;;;3146618;28;20514;-38
2023/12/08 09:58:11;;;;;;;8.88;6.55;;;22.20;37.80;;;;;;3145144;28;20048;-38
2023/12/08 09:59:42;;;;;;;8.90;7.10;;;22.20;37.60;;;;;;3148791;28;20051;-39
2023/12/08 10:01:16;;;;;;;10.38;6.70;;;22.30;37.50;;;;;;3144817;28;20037;-39
2023/12/08 10:02:49;;;;;;;10.95;6.72;;;22.50;37.10;;;;;;3148222;28;20399;-39
2023/12/08 10:04:19;;;;;;;9.05;6.82;;;22.60;37.00;;;;;;3147690;28;20513;-39
2023/12/08 10:05:51;;;;;;;10.57;6.50;;;22.60;36.80;;;;;;3144330;28;20052;-39
2023/12/08 10:07:23;;;;;;;9.80;6.05;;;22.60;36.80;;;;;;3145989;28;20503;-39
2023/12/08 10:08:55;;;;;;;8.70;6.78;;;22.70;36.90;;;;;;3150297;28;20055;-39
2023/12/08 10:10:27;;;;;;;12.07;7.50;;;22.70;36.20;;;;;;3145119;28;20056;-40
2023/12/08 10:11:57;;;;;;;11.70;7.45;;;22.70;35.20;;;;;;3141355;28;20047;-39
2023/12/08 10:13:30;;;;;;;8.95;7.07;;;22.70;34.90;;;;;;3145777;28;20044;-39
2023/12/08 10:15:01;;;;;;;7.55;6.60;;;22.70;35.00;;;;;;3145816;28;20045;-39
2023/12/08 10:16:33;;;;;;;9.88;6.47;;;22.60;35.00;;;;;;3143576;28;20040;-39
2023/12/08 10:18:03;;;;;;;10.43;6.65;;;22.60;35.10;;;;;;3145841;28;20552;-39
2023/12/08 10:19:35;;;;;;;10.13;6.43;;;22.70;35.00;;;;;;3145441;28;20045;-39
2023/12/08 10:21:14;;;;;;;9.57;6.15;;;22.70;34.90;;;;;;3143305;28;20055;-40
2023/12/08 10:22:50;;;;;;;7.72;6.38;;;22.70;35.50;;;;;;3144300;28;20518;-40
2023/12/08 10:24:21;;;;;;;8.80;6.43;;;22.70;35.40;;;;;;3144506;28;20095;-40
2023/12/08 10:25:52;;;;;;;8.55;6.60;;;22.80;35.10;;;;;;3141695;28;20049;-40
2023/12/08 10:27:24;;;;;;;9.32;6.10;;;22.80;35.10;;;;;;3142744;28;20070;-40
2023/12/08 10:28:55;;;;;;;8.90;6.30;;;22.80;35.00;;;;;;3142739;28;20049;-40
2023/12/08 10:30:26;;;;;;;9.43;6.63;;;22.90;34.80;;;;;;3143630;28;20507;-40
2023/12/08 10:31:58;;;;;;;9.98;6.75;;;23.00;34.70;;;;;;3072377;28;20298;-40
2023/12/08 10:33:29;;;;;;;6.85;5.68;;;22.90;34.90;;;;;;3029290;28;105940;-40
2023/12/08 10:35:01;;;;;;;6.15;5.15;;;22.90;35.40;;;;;;3116620;28;20045;-40
2023/12/08 10:36:36;;;;;;;5.18;4.68;;;23.00;35.70;;;;;;3119941;28;20046;-40
2023/12/08 10:38:09;;;;;;;5.35;4.85;;;23.00;36.00;;;;;;3118003;28;20053;-40
2023/12/08 10:39:40;;;;;;;9.85;4.63;;;23.00;36.20;;;;;;3118451;28;20141;-40
2023/12/08 10:41:11;;;;;;;7.97;5.20;;;23.00;36.10;;;;;;3117570;28;20060;-40
2023/12/08 10:42:44;;;;;;;7.43;4.55;;;23.10;35.80;;;;;;3119744;28;20038;-40
2023/12/08 10:44:17;;;;;;;7.38;5.07;;;23.10;36.00;;;;;;3119214;28;20511;-39
2023/12/08 10:45:50;;;;;;;6.60;4.70;;;23.10;36.30;;;;;;3119468;28;20045;-41
2023/12/08 10:47:21;;;;;;;;;;;23.10;36.40;;;;;;3120104;28;20041;-39
2023/12/08 10:48:52;;;;;;;10.23;4.35;;;23.10;36.50;;;;;;3118938;28;19924;-39
2023/12/08 10:50:23;;;;;;;5.43;4.05;;;23.20;36.70;;;;;;3119835;28;20412;-39
2023/12/08 10:51:55;;;;;;;5.35;4.35;;;23.20;36.70;;;;;;3119547;28;20044;-40
2023/12/08 10:53:27;;;;;;;5.25;4.07;;;23.30;37.00;;;;;;3119734;28;20507;-39
2023/12/08 10:54:59;;;;;;;7.97;3.97;;;23.20;36.80;;;;;;3120097;28;20136;-39
2023/12/08 10:56:29;;;;;;;5.10;4.10;;;23.20;36.90;;;;;;3118819;28;20254;-39
2023/12/08 10:58:01;;;;;;;4.78;3.72;;;23.20;37.10;;;;;;3119789;28;20459;-40
2023/12/08 10:59:33;;;;;;;3.70;3.40;;;23.20;37.10;;;;;;3119693;28;20065;-40
2023/12/08 11:01:11;;;;;;;5.60;4.10;;;23.30;37.20;;;;;;3119844;28;20054;-41
2023/12/08 11:02:43;;;;;;;4.25;3.83;;;23.30;37.20;;;;;;3114421;28;20623;-39
2023/12/08 11:04:17;;;;;;;4.43;3.13;;;23.30;37.40;;;;;;3111206;28;20060;-39
2023/12/08 11:05:55;;;;;;;4.00;3.60;;;23.20;37.40;;;;;;3111536;28;20050;-44
2023/12/08 11:07:30;;;;;;;5.78;3.70;;;23.30;37.50;;;;;;3111612;28;20080;-39
2023/12/08 11:09:06;;;;;;;3.97;3.63;;;23.30;37.40;;;;;;3111376;28;20535;-39
2023/12/08 11:10:37;;;;;;;5.25;3.78;;;23.30;37.50;;;;;;3110233;28;20050;-39
2023/12/08 11:12:08;;;;;;;3.45;3.15;;;23.30;37.40;;;;;;3111148;28;20052;-38
2023/12/08 11:13:44;;;;;;;4.53;3.58;;;23.30;37.60;;;;;;3111037;28;20125;-41
2023/12/08 11:15:16;;;;;;;3.85;3.40;;;23.30;37.60;;;;;;3110997;28;20050;-39
2023/12/08 11:16:50;;;;;;;4.13;3.60;;;23.40;37.60;;;;;;3111236;28;20072;-39
2023/12/08 11:18:22;;;;;;;3.95;3.55;;;23.40;37.60;;;;;;3111366;28;20065;-39
2023/12/08 11:19:54;;;;;;;;;;;23.40;37.70;;;;;;3111735;28;20050;-41
2023/12/08 11:21:25;;;;;;;3.72;2.97;;;23.30;37.70;;;;;;3111444;28;19983;-39
2023/12/08 11:22:56;;;;;;;4.55;3.42;;;23.30;37.80;;;;;;3111244;28;20176;-42
2023/12/08 11:24:28;;;;;;;5.80;3.90;;;23.30;37.90;;;;;;3111440;28;20550;-39
2023/12/08 11:26:04;;;;;;;3.95;3.65;;;23.40;37.80;;;;;;3111184;28;20080;-39
2023/12/08 11:27:38;;;;;;;3.30;3.00;;;23.40;37.80;;;;;;3108691;28;20053;-39
2023/12/08 11:29:13;;;;;;;4.47;3.45;;;23.40;37.80;;;;;;3111407;28;20046;-39
2023/12/08 11:30:48;;;;;;;3.95;3.58;;;23.40;37.80;;;;;;3110735;28;20492;-43
2023/12/08 11:32:24;;;;;;;3.70;3.40;;;23.40;37.90;;;;;;3110929;28;20046;-39
2023/12/08 11:33:56;;;;;;;4.00;3.60;;;23.40;37.80;;;;;;3111067;28;20056;-41
2023/12/08 11:35:29;;;;;;;;;;;23.40;37.80;;;;;;3111600;28;20087;-39
2023/12/08 11:37:00;;;;;;;3.67;3.20;;;23.40;37.90;;;;;;3111145;28;19922;-39
2023/12/08 11:38:32;;;;;;;3.67;3.22;;;23.40;38.00;;;;;;3110845;28;20497;-39
2023/12/08 11:40:06;;;;;;;3.78;3.47;;;23.40;38.00;;;;;;3111228;28;20053;-43
2023/12/08 11:41:38;;;;;;;3.67;3.38;;;23.40;37.90;;;;;;3111227;28;20433;-39
2023/12/08 11:43:08;;;;;;;3.78;3.22;;;23.50;37.90;;;;;;3111019;28;20069;-40
2023/12/08 11:44:42;;;;;;;3.70;3.28;;;23.50;37.80;;;;;;3110849;28;20080;-39
2023/12/08 11:46:14;;;;;;;3.97;3.40;;;23.50;37.80;;;;;;3108710;28;20137;-39
2023/12/08 11:47:45;;;;;;;3.38;3.08;;;23.60;37.80;;;;;;3111293;28;20416;-40
2023/12/08 11:49:16;;;;;;;4.05;3.50;;;23.60;37.80;;;;;;3110907;28;20050;-41
2023/12/08 11:50:48;;;;;;;3.60;3.20;;;23.50;37.80;;;;;;3110966;28;20053;-39
2023/12/08 11:52:20;;;;;;;3.47;3.17;;;23.50;37.90;;;;;;3109910;28;20415;-40
2023/12/08 11:53:53;;;;;;;;;;;23.50;38.50;;;;;;3110541;28;20492;-40
2023/12/08 11:55:26;;;;;;;3.42;3.13;;;23.60;37.90;;;;;;3105618;28;19917;-40
2023/12/08 11:56:56;;;;;;;6.22;2.95;;;23.50;38.10;;;;;;3106178;28;20077;-41
2023/12/08 11:58:33;;;;;;;4.45;3.40;;;23.60;37.60;;;;;;3106576;28;20131;-42
2023/12/08 12:00:07;;;;;;;6.13;3.80;;;23.70;37.10;;;;;;3109303;28;20096;-40
2023/12/08 12:01:41;;;;;;;4.47;3.40;;;23.70;36.90;;;;;;3105587;28;20042;-41
2023/12/08 12:03:13;;;;;;;8.35;3.42;;;23.70;37.10;;;;;;3104577;28;20049;-41
2023/12/08 12:04:44;;;;;;;4.53;3.42;;;23.70;37.40;;;;;;3109781;28;20050;-40
2023/12/08 12:06:15;;;;;;;6.90;3.25;;;23.70;37.40;;;;;;3107941;28;20520;-40
2023/12/08 12:07:47;;;;;;;4.45;3.20;;;23.70;37.50;;;;;;3109080;28;20057;-40
2023/12/08 12:09:20;;;;;;;5.65;3.05;;;23.70;37.60;;;;;;3105730;28;20408;-40
2023/12/08 12:10:51;;;;;;;;;;;23.80;37.70;;;;;;3109269;28;20882;-39
2023/12/08 12:12:25;;;;;;;7.30;3.13;;;23.80;37.70;;;;;;3108950;28;20268;-40
2023/12/08 12:13:55;;;;;;;11.55;3.33;;;23.60;37.90;;;;;;3108214;28;20133;-43
2023/12/08 12:15:30;;;;;;;6.05;3.30;;;23.50;38.40;;;;;;3108699;28;20065;-40
2023/12/08 12:17:00;;;;;;;5.18;2.90;;;23.50;38.70;;;;;;3108432;28;20112;-40
2023/12/08 12:18:32;;;;;;;10.85;3.17;;;23.50;38.90;;;;;;3110397;28;20045;-40
2023/12/08 12:20:04;;;;;;;6.82;3.45;;;23.50;38.90;;;;;;3108795;28;20046;-40
2023/12/08 12:21:36;;;;;;;10.45;3.70;;;23.50;39.10;;;;;;3109711;28;20037;-40
2023/12/08 12:23:07;;;;;;;9.65;3.42;;;23.50;39.40;;;;;;3110188;28;20125;-43
2023/12/08 12:24:38;;;;;;;7.85;3.80;;;23.40;39.50;;;;;;3109440;28;20480;-40
2023/12/08 12:26:13;;;;;;;10.85;3.40;;;23.40;40.10;;;;;;3109767;28;20099;-42
2023/12/08 12:27:45;;;;;;;9.27;3.17;;;23.50;39.90;;;;;;3110373;28;20080;-39
2023/12/08 12:29:16;;;;;;;8.43;3.45;;;23.50;40.10;;;;;;3109032;28;20133;-42
2023/12/08 12:30:48;;;;;;;9.35;3.40;;;23.50;40.30;;;;;;3109424;28;20061;-40
2023/12/08 12:32:20;;;;;;;6.33;3.20;;;23.50;40.10;;;;;;3109383;28;20042;-40
2023/12/08 12:33:50;;;;;;;12.23;3.50;;;23.50;40.20;;;;;;3110141;28;20075;-41
2023/12/08 12:35:23;;;;;;;11.40;3.70;;;23.60;39.80;;;;;;3107436;28;20049;-42
2023/12/08 12:36:54;;;;;;;;;;;23.70;39.40;;;;;;3109467;28;20132;-40
2023/12/08 12:38:26;;;;;;;5.75;3.38;;;23.60;39.40;;;;;;3109387;28;19917;-44
2023/12/08 12:39:56;;;;;;;9.02;3.60;;;23.60;39.50;;;;;;3108652;28;20058;-47
2023/12/08 12:41:29;;;;;;;9.20;3.30;;;23.60;39.40;;;;;;3108148;28;20052;-41
2023/12/08 12:43:00;;;;;;;7.22;3.60;;;23.70;39.20;;;;;;3109293;28;20046;-40
2023/12/08 12:44:41;;;;;;;9.77;3.28;;;23.60;39.40;;;;;;3108495;28;20057;-40
2023/12/08 12:46:12;;;;;;;5.65;3.30;;;23.70;39.60;;;;;;3109550;28;20481;-40
2023/12/08 12:47:44;;;;;;;13.32;3.40;;;23.60;39.50;;;;;;3109443;28;20044;-43
2023/12/08 12:49:15;;;;;;;8.23;3.08;;;23.70;39.50;;;;;;3110220;28;20049;-40
2023/12/08 12:50:46;;;;;;;10.73;3.33;;;23.80;39.60;;;;;;3110146;28;20038;-41
2023/12/08 12:52:21;;;;;;;10.30;3.40;;;23.80;39.50;;;;;;3109617;28;20058;-41
2023/12/08 12:53:53;;;;;;;9.95;3.40;;;23.70;39.80;;;;;;3110256;28;20049;-40
2023/12/08 12:55:24;;;;;;;10.77;3.20;;;23.80;39.80;;;;;;3108679;28;20045;-40
2023/12/08 12:56:57;;;;;;;22.13;3.45;;;23.70;39.90;;;;;;3109764;28;20452;-40
2023/12/08 12:58:28;;;;;;;12.00;3.60;;;23.80;40.00;;;;;;3107071;28;20444;-40
2023/12/08 13:00:00;;;;;;;13.93;3.50;;;23.70;40.10;;;;;;3112617;28;20093;-40
2023/12/08 13:01:31;;;;;;;16.08;3.78;;;23.80;40.30;;;;;;3109094;28;20072;-40
2023/12/08 13:03:09;;;;;;;16.10;3.70;;;23.90;40.50;;;;;;3108424;28;20045;-40
2023/12/08 13:04:39;;;;;;;15.35;3.40;;;24.00;40.50;;;;;;3109678;28;20515;-41
2023/12/08 13:06:11;;;;;;;10.55;3.17;;;23.70;40.90;;;;;;3107680;28;20042;-44
2023/12/08 13:07:41;;;;;;;9.93;3.70;;;23.80;40.40;;;;;;3106930;28;20054;-42
2023/12/08 13:09:13;;;;;;;8.75;3.80;;;23.80;39.60;;;;;;3109021;28;20042;-40
2023/12/08 13:10:44;;;;;;;13.35;3.83;;;23.60;40.20;;;;;;3109254;28;20046;-44
2023/12/08 13:12:17;;;;;;;13.07;3.50;;;23.50;40.70;;;;;;3109571;28;20046;-41
2023/12/08 13:13:48;;;;;;;12.77;3.40;;;23.30;41.10;;;;;;3108284;28;20058;-44
2023/12/08 13:15:20;;;;;;;6.97;3.40;;;23.30;41.50;;;;;;3108078;28;20048;-40
2023/12/08 13:16:50;;;;;;;6.43;2.90;;;23.30;41.60;;;;;;3107953;28;20081;-41
2023/12/08 13:18:22;;;;;;;9.90;3.60;;;23.10;41.80;;;;;;3109704;28;20057;-40
2023/12/08 13:19:53;;;;;;;11.75;3.85;;;23.30;41.10;;;;;;3107744;28;20514;-41
2023/12/08 13:21:25;;;;;;;9.02;3.10;;;23.40;40.80;;;;;;3108233;28;20053;-40
2023/12/08 13:22:55;;;;;;;20.02;3.30;;;23.50;40.60;;;;;;3108673;28;20048;-40
2023/12/08 13:24:27;;;;;;;12.35;3.78;;;23.60;40.70;;;;;;3108826;28;20045;-40
2023/12/08 13:26:00;;;;;;;8.45;3.15;;;23.70;40.80;;;;;;3108320;28;20045;-40
2023/12/08 13:27:32;;;;;;;15.07;3.55;;;23.70;41.10;;;;;;3107848;28;20046;-40
2023/12/08 13:29:03;;;;;;;27.85;4.43;;;23.50;41.50;;;;;;3109991;28;20060;-41
2023/12/08 13:30:35;;;;;;;8.80;3.20;;;23.60;41.60;;;;;;3109432;28;20042;-40
2023/12/08 13:32:07;;;;;;;8.50;3.40;;;23.80;41.70;;;;;;3109032;28;20053;-40
2023/12/08 13:33:38;;;;;;;5.50;3.13;;;23.90;41.60;;;;;;3110226;28;20073;-41
2023/12/08 13:35:10;;;;;;;28.10;5.00;;;23.90;41.90;;;;;;3107404;28;20077;-40
2023/12/08 13:36:40;;;;;;;8.57;3.33;;;23.80;41.40;;;;;;3109229;28;20046;-40
2023/12/08 13:38:12;;;;;;;14.20;3.47;;;23.70;41.90;;;;;;3108554;28;20049;-41
2023/12/08 13:39:43;;;;;;;14.27;3.70;;;23.70;41.70;;;;;;3109685;28;20041;-41
2023/12/08 13:41:14;;;;;;;17.80;3.33;;;23.80;41.80;;;;;;3109610;28;20116;-40
2023/12/08 13:42:46;;;;;;;11.32;3.70;;;23.90;41.20;;;;;;3109039;28;20477;-41
2023/12/08 13:44:18;;;;;;;10.68;3.25;;;23.80;41.10;;;;;;3107539;28;20077;-45
2023/12/08 13:45:49;;;;;;;13.40;3.50;;;23.90;40.90;;;;;;3106429;28;20050;-47
2023/12/08 13:47:20;;;;;;;10.60;3.42;;;23.90;41.30;;;;;;3108189;28;20042;-41
2023/12/08 13:48:51;;;;;;;11.13;3.38;;;23.70;41.80;;;;;;3107834;28;20085;-40
2023/12/08 13:50:23;;;;;;;15.05;3.50;;;23.70;42.00;;;;;;3109779;28;20052;-40
2023/12/08 13:51:53;;;;;;;13.13;3.17;;;23.70;42.10;;;;;;3109184;28;20054;-40
2023/12/08 13:53:25;;;;;;;6.88;3.25;;;23.60;42.00;;;;;;3109340;28;20056;-43
2023/12/08 13:54:57;;;;;;;10.40;2.90;;;23.70;41.80;;;;;;3109643;28;20077;-44
2023/12/08 13:56:27;;;;;;;12.48;3.30;;;23.70;41.70;;;;;;3107829;28;20060;-39
2023/12/08 13:58:00;;;;;;;9.80;3.35;;;23.80;41.90;;;;;;3108900;28;20041;-40
2023/12/08 13:59:31;;;;;;;9.07;3.10;;;23.70;42.00;;;;;;3107691;28;20045;-40
2023/12/08 14:01:03;;;;;;;12.38;3.40;;;23.60;42.10;;;;;;3108703;28;20046;-48
2023/12/08 14:02:34;;;;;;;14.90;3.63;;;23.80;42.10;;;;;;3108762;28;20065;-40
2023/12/08 14:04:07;;;;;;;9.77;3.28;;;23.90;41.90;;;;;;3108508;28;20077;-40
2023/12/08 14:05:37;;;;;;;13.50;3.35;;;23.90;41.40;;;;;;3109038;28;20463;-40
2023/12/08 14:07:09;;;;;;;7.55;3.15;;;23.80;41.30;;;;;;3107002;28;20081;-41
2023/12/08 14:08:39;;;;;;;8.52;2.97;;;23.80;41.10;;;;;;3107195;28;20057;-40
2023/12/08 14:10:11;;;;;;;9.25;3.45;;;23.80;41.00;;;;;;3109771;28;20408;-41
2023/12/08 14:11:42;;;;;;;11.38;2.97;;;23.80;40.90;;;;;;3108588;28;20120;-41
2023/12/08 14:13:15;;;;;;;5.95;3.17;;;23.80;41.00;;;;;;3108882;28;20082;-41
2023/12/08 14:14:46;;;;;;;11.85;3.03;;;23.80;41.10;;;;;;3105871;28;20501;-40
2023/12/08 14:16:17;;;;;;;10.40;3.10;;;23.90;41.10;;;;;;3108076;28;20057;-44
2023/12/08 14:17:48;;;;;;;9.93;3.55;;;23.90;41.10;;;;;;3106433;28;20050;-40
2023/12/08 14:19:20;;;;;;;7.18;3.30;;;23.90;41.10;;;;;;3107561;28;20444;-41
2023/12/08 14:20:50;;;;;;;7.10;3.03;;;23.80;41.90;;;;;;3107094;28;20081;-40
2023/12/08 14:22:22;;;;;;;7.45;2.90;;;24.00;41.30;;;;;;3107140;28;20050;-41
2023/12/08 14:23:53;;;;;;;8.13;3.60;;;24.00;41.00;;;;;;3107072;28;20081;-40
2023/12/08 14:25:24;;;;;;;8.75;3.28;;;24.00;40.90;;;;;;3106920;28;20095;-40
2023/12/08 14:26:56;;;;;;;9.57;3.20;;;24.00;40.60;;;;;;3108307;28;20050;-45
2023/12/08 14:28:28;;;;;;;10.25;3.83;;;24.00;40.50;;;;;;3107152;28;20046;-40
2023/12/08 14:29:59;;;;;;;23.13;3.80;;;23.80;41.00;;;;;;3106411;28;20583;-40
2023/12/08 14:31:31;;;;;;;12.55;3.97;;;23.70;41.30;;;;;;3107120;28;20049;-41
2023/12/08 14:33:03;;;;;;;14.32;3.63;;;23.60;41.50;;;;;;3106742;28;20073;-40
2023/12/08 14:34:34;;;;;;;14.20;4.10;;;23.60;41.20;;;;;;3108009;28;20096;-40
2023/12/08 14:36:07;;;;;;;9.48;3.40;;;23.60;41.20;;;;;;3108854;28;20080;-46
2023/12/08 14:37:38;;;;;;;9.65;3.65;;;23.50;41.40;;;;;;3104395;28;20668;-44
2023/12/08 14:39:10;;;;;;;9.75;3.33;;;23.60;41.60;;;;;;3107325;28;20042;-40
2023/12/08 14:40:41;;;;;;;13.77;3.33;;;23.60;41.70;;;;;;3108689;28;20058;-40
2023/12/08 14:42:13;;;;;;;6.50;3.25;;;23.70;41.90;;;;;;3110739;28;20535;-42
2023/12/08 14:43:45;;;;;;;8.73;3.13;;;23.70;41.80;;;;;;3110456;28;20100;-40
2023/12/08 14:45:16;;;;;;;12.32;3.30;;;23.70;42.00;;;;;;3109528;28;20172;-40
2023/12/08 14:46:48;;;;;;;8.90;3.15;;;23.70;41.90;;;;;;3108667;28;20086;-45
2023/12/08 14:48:22;;;;;;;13.45;3.67;;;23.60;41.60;;;;;;3110437;28;20112;-40
2023/12/08 14:49:52;;;;;;;8.07;3.92;;;23.60;41.00;;;;;;3111154;28;20050;-40
2023/12/08 14:51:24;;;;;;;7.55;3.90;;;23.60;40.40;;;;;;3108701;28;20129;-40
2023/12/08 14:52:55;;;;;;;8.23;4.18;;;23.50;40.00;;;;;;3108782;28;20077;-40
2023/12/08 14:54:27;;;;;;;6.93;4.20;;;23.40;39.50;;;;;;3110507;28;20041;-41
2023/12/08 14:55:58;;;;;;;6.80;3.90;;;23.40;39.60;;;;;;3111512;28;20152;-40
2023/12/08 14:57:29;;;;;;;5.82;3.95;;;23.40;39.60;;;;;;3111579;28;20054;-40
2023/12/08 14:59:02;;;;;;;6.15;3.78;;;23.40;39.50;;;;;;3111907;28;20046;-41
2023/12/08 15:00:33;;;;;;;4.68;3.63;;;23.40;39.60;;;;;;3110894;28;20085;-40
2023/12/08 15:02:05;;;;;;;7.18;3.80;;;23.40;39.50;;;;;;3111563;28;20515;-40
2023/12/08 15:03:36;;;;;;;6.00;3.80;;;23.40;39.50;;;;;;3111654;28;20400;-40
2023/12/08 15:05:08;;;;;;;4.90;3.72;;;23.40;39.50;;;;;;3111853;28;20346;-45
2023/12/08 15:06:39;;;;;;;5.47;3.83;;;23.40;39.30;;;;;;3111319;28;20470;-41
2023/12/08 15:08:14;;;;;;;5.72;4.00;;;23.30;39.30;;;;;;3111494;28;20050;-40
2023/12/08 15:09:45;;;;;;;10.20;4.22;;;23.30;39.20;;;;;;3111414;28;20092;-41
2023/12/08 15:11:19;;;;;;;5.85;3.90;;;23.30;39.20;;;;;;3111761;28;20484;-41
2023/12/08 15:12:50;;;;;;;8.50;4.20;;;23.30;39.30;;;;;;3111289;28;20100;-41
2023/12/08 15:14:23;;;;;;;5.03;3.53;;;23.30;39.20;;;;;;3111043;28;20136;-38
2023/12/08 15:15:54;;;;;;;6.22;3.90;;;23.30;39.30;;;;;;3111075;28;20452;-38
2023/12/08 15:17:25;;;;;;;4.95;3.83;;;23.30;39.30;;;;;;3111185;28;20085;-40
2023/12/08 15:18:57;;;;;;;4.65;3.70;;;23.30;39.20;;;;;;3111097;28;20515;-38
2023/12/08 15:20:28;;;;;;;4.13;3.40;;;23.30;39.20;;;;;;3111495;28;20042;-38
2023/12/08 15:22:02;;;;;;;4.03;3.60;;;23.40;39.20;;;;;;3111279;28;20061;-38
2023/12/08 15:23:33;;;;;;;5.72;3.70;;;23.40;39.10;;;;;;3109836;28;20053;-38
2023/12/08 15:25:05;;;;;;;3.80;3.45;;;23.30;39.20;;;;;;3111233;28;20054;-40
2023/12/08 15:26:38;;;;;;;5.32;3.45;;;23.30;39.20;;;;;;3111186;28;20057;-41
2023/12/08 15:28:10;;;;;;;5.30;4.05;;;23.30;39.20;;;;;;3108326;28;20125;-38
2023/12/08 15:29:42;;;;;;;5.30;3.88;;;23.30;39.00;;;;;;3111088;28;20563;-38
2023/12/08 15:31:14;;;;;;;4.18;3.60;;;23.20;39.20;;;;;;3110212;28;20132;-38
2023/12/08 15:32:44;;;;;;;5.05;3.80;;;23.20;39.20;;;;;;3111058;28;20226;-38
2023/12/08 15:34:16;;;;;;;5.15;3.70;;;23.30;39.10;;;;;;3111403;28;20049;-38
2023/12/08 15:35:47;;;;;;;4.50;3.80;;;23.30;39.00;;;;;;3111227;28;20060;-39
2023/12/08 15:37:19;;;;;;;4.30;3.90;;;23.20;39.10;;;;;;3111050;28;20076;-38
2023/12/08 15:38:49;;;;;;;4.25;3.80;;;23.30;39.00;;;;;;3111108;28;20099;-38
2023/12/08 15:40:21;;;;;;;4.50;3.70;;;23.30;39.00;;;;;;3111188;28;20862;-39
2023/12/08 15:41:51;;;;;;;4.43;3.78;;;23.30;39.00;;;;;;3111422;28;20078;-38
2023/12/08 15:43:23;;;;;;;4.45;4.03;;;23.30;39.00;;;;;;3107136;28;20069;-42
2023/12/08 15:44:55;;;;;;;5.05;3.72;;;23.30;39.00;;;;;;3109985;28;20077;-40
2023/12/08 15:46:27;;;;;;;4.90;4.18;;;23.20;38.90;;;;;;3109158;28;20451;-38
2023/12/08 15:47:58;;;;;;;4.50;3.85;;;23.30;38.80;;;;;;3110509;28;20081;-39
2023/12/08 15:49:29;;;;;;;6.05;4.13;;;23.20;38.60;;;;;;3110414;28;20424;-40
2023/12/08 15:51:00;;;;;;;4.88;4.10;;;23.20;39.00;;;;;;3110397;28;20054;-38
2023/12/08 15:52:31;;;;;;;5.65;3.90;;;23.30;39.10;;;;;;3108997;28;20048;-43
2023/12/08 15:54:03;;;;;;;13.52;3.85;;;23.20;39.40;;;;;;3109776;28;20045;-37
2023/12/08 15:55:35;;;;;;;5.78;3.92;;;23.20;39.70;;;;;;3109158;28;20514;-38
2023/12/08 15:57:06;;;;;;;10.82;4.20;;;23.20;40.00;;;;;;3107958;28;20088;-38
2023/12/08 15:58:37;;;;;;;8.07;3.92;;;23.20;40.30;;;;;;3110254;28;20042;-38
2023/12/08 16:00:10;;;;;;;12.98;4.43;;;23.20;40.30;;;;;;3109201;28;20042;-38
2023/12/08 16:01:42;;;;;;;14.40;4.05;;;23.30;40.70;;;;;;3107665;28;20502;-41
2023/12/08 16:03:14;;;;;;;6.65;4.63;;;23.30;40.60;;;;;;3108019;28;20050;-37
2023/12/08 16:04:45;;;;;;;8.43;4.10;;;23.20;41.20;;;;;;3109342;28;20069;-38
2023/12/08 16:06:16;;;;;;;8.27;4.15;;;23.30;40.60;;;;;;3108378;28;20046;-37
2023/12/08 16:07:48;;;;;;;9.77;4.20;;;23.30;40.60;;;;;;3107070;28;20057;-37
2023/12/08 16:09:19;;;;;;;7.07;4.68;;;23.30;40.90;;;;;;3110206;28;20133;-38
2023/12/08 16:10:51;;;;;;;9.93;4.80;;;23.30;41.10;;;;;;3110073;28;20045;-38
2023/12/08 16:12:24;;;;;;;8.75;4.35;;;23.30;41.30;;;;;;3108493;28;20049;-39
2023/12/08 16:13:56;;;;;;;11.13;4.22;;;23.30;41.90;;;;;;3108956;28;20117;-37
2023/12/08 16:15:28;;;;;;;7.07;4.20;;;23.30;42.10;;;;;;3106622;28;20100;-40
2023/12/08 16:17:01;;;;;;;7.53;4.38;;;23.30;42.10;;;;;;3109768;28;20061;-39
2023/12/08 16:18:34;;;;;;;10.75;4.63;;;23.30;42.40;;;;;;3109375;28;20136;-39
2023/12/08 16:20:08;;;;;;;13.88;5.28;;;23.30;42.60;;;;;;3107771;28;20061;-37
2023/12/08 16:21:38;;;;;;;10.48;5.18;;;23.30;42.60;;;;;;3108570;28;20042;-37
2023/12/08 16:23:10;;;;;;;8.63;4.80;;;23.30;42.80;;;;;;3108310;28;20400;-38
2023/12/08 16:24:42;;;;;;;14.73;4.85;;;23.30;43.10;;;;;;3108604;28;20050;-38
2023/12/08 16:26:14;;;;;;;11.18;4.57;;;23.30;43.60;;;;;;3108124;28;20063;-38
2023/12/08 16:27:44;;;;;;;9.98;4.45;;;23.30;44.10;;;;;;3109868;28;20057;-39
2023/12/08 16:29:16;;;;;;;10.75;4.78;;;23.30;44.10;;;;;;3110549;28;20492;-38
2023/12/08 16:30:48;;;;;;;11.88;4.85;;;23.30;44.10;;;;;;3108937;28;20546;-38
2023/12/08 16:32:19;;;;;;;10.23;4.80;;;23.30;44.30;;;;;;3106991;28;20093;-38
2023/12/08 16:33:50;;;;;;;9.02;4.47;;;23.30;44.40;;;;;;3107856;28;20076;-39
2023/12/08 16:35:22;;;;;;;8.15;4.68;;;23.30;44.40;;;;;;3107761;28;20041;-38
2023/12/08 16:36:52;;;;;;;7.18;4.35;;;23.30;44.60;;;;;;3110102;28;20515;-39
2023/12/08 16:38:25;;;;;;;8.70;4.63;;;23.20;44.60;;;;;;3106550;28;20046;-39
2023/12/08 16:39:55;;;;;;;8.63;4.82;;;23.30;44.60;;;;;;3108349;28;20145;-38
2023/12/08 16:41:27;;;;;;;8.45;4.57;;;23.30;44.80;;;;;;3109339;28;20432;-37
2023/12/08 16:42:58;;;;;;;5.40;4.22;;;23.40;45.20;;;;;;3108807;28;20412;-39
2023/12/08 16:44:30;;;;;;;6.95;4.57;;;23.30;45.20;;;;;;3109257;28;20052;-38
2023/12/08 16:46:02;;;;;;;8.13;4.55;;;23.40;45.40;;;;;;3108586;28;20129;-38
2023/12/08 16:47:34;;;;;;;14.90;5.50;;;23.40;45.80;;;;;;3109940;28;20049;-39
2023/12/08 16:49:05;;;;;;;19.60;5.57;;;23.30;46.10;;;;;;3107653;28;20046;-40
2023/12/08 16:50:37;;;;;;;9.88;5.00;;;23.30;46.10;;;;;;3108855;28;20046;-37
2023/12/08 16:52:07;;;;;;;10.05;5.88;;;23.30;46.20;;;;;;3109571;28;20046;-38
2023/12/08 16:53:39;;;;;;;11.68;5.53;;;23.40;46.60;;;;;;3108678;28;20243;-37
2023/12/08 16:55:09;;;;;;;14.55;6.50;;;23.40;45.90;;;;;;3108295;28;20492;-38
2023/12/08 16:56:41;;;;;;;8.75;5.70;;;23.40;45.40;;;;;;3109238;28;20053;-38
2023/12/08 16:58:13;;;;;;;10.00;6.38;;;23.30;45.00;;;;;;3109364;28;20046;-37
2023/12/08 16:59:43;;;;;;;10.68;6.35;;;23.40;44.50;;;;;;3108864;28;20046;-40
2023/12/08 17:01:16;;;;;;;9.18;6.20;;;23.40;44.10;;;;;;3107743;28;20049;-38
2023/12/08 17:02:47;;;;;;;11.40;6.57;;;23.40;43.70;;;;;;3109308;28;20056;-37
2023/12/08 17:04:18;;;;;;;11.43;5.97;;;23.30;43.50;;;;;;3109663;28;20042;-38
2023/12/08 17:05:49;;;;;;;9.63;6.55;;;23.40;43.20;;;;;;3109624;28;20046;-37
2023/12/08 17:07:21;;;;;;;14.57;6.60;;;23.30;43.00;;;;;;3105213;28;20496;-40
2023/12/08 17:08:52;;;;;;;7.70;5.50;;;23.40;43.20;;;;;;3106692;28;20050;-37
2023/12/08 17:10:24;;;;;;;10.93;5.40;;;23.40;43.30;;;;;;3107982;28;20049;-37
2023/12/08 17:11:55;;;;;;;10.27;5.40;;;23.40;43.50;;;;;;3105975;28;20511;-37
2023/12/08 17:13:27;;;;;;;11.80;5.75;;;23.50;43.40;;;;;;3109562;28;20049;-39
2023/12/08 17:14:58;;;;;;;11.90;5.30;;;23.50;43.30;;;;;;3107128;28;20057;-38
2023/12/08 17:16:30;;;;;;;10.57;5.10;;;23.50;43.50;;;;;;3102933;28;20050;-37
2023/12/08 17:18:02;;;;;;;8.73;5.15;;;23.50;43.60;;;;;;3106865;28;20041;-38
2023/12/08 17:19:34;;;;;;;9.20;5.00;;;23.50;43.70;;;;;;3106425;28;20050;-37
2023/12/08 17:21:05;;;;;;;14.30;4.95;;;23.50;43.80;;;;;;3104130;28;20420;-40
2023/12/08 17:22:36;;;;;;;9.82;4.75;;;23.50;43.70;;;;;;3103556;28;20052;-37
2023/12/08 17:24:07;;;;;;;7.47;4.68;;;23.50;43.80;;;;;;3104618;28;20492;-38
2023/12/08 17:25:39;;;;;;;9.88;4.63;;;23.50;43.80;;;;;;3103407;28;20049;-37
2023/12/08 17:27:09;;;;;;;11.30;4.20;;;23.50;43.80;;;;;;3107204;28;20393;-37
2023/12/08 17:28:41;;;;;;;8.43;4.90;;;23.50;43.90;;;;;;3106150;28;20048;-37
2023/12/08 17:30:12;;;;;;;14.07;5.05;;;23.40;44.00;;;;;;3108277;28;20045;-38
2023/12/08 17:31:45;;;;;;;9.93;4.95;;;23.40;44.00;;;;;;3109751;28;20128;-40
2023/12/08 17:33:16;;;;;;;9.88;4.63;;;23.40;44.00;;;;;;3109187;28;20051;-37
2023/12/08 17:34:53;;;;;;;12.07;4.93;;;23.50;44.00;;;;;;3109969;28;20875;-38
2023/12/08 17:36:24;;;;;;;7.05;4.80;;;23.50;43.90;;;;;;3108078;28;20045;-38
2023/12/08 17:37:55;;;;;;;7.47;4.55;;;23.50;43.90;;;;;;3109693;28;20088;-38
2023/12/08 17:39:26;;;;;;;10.90;4.50;;;23.50;43.90;;;;;;3109493;28;20046;-37
2023/12/08 17:40:58;;;;;;;8.00;4.78;;;23.50;43.90;;;;;;3109460;28;20072;-41
2023/12/08 17:42:28;;;;;;;8.60;4.78;;;23.50;43.80;;;;;;3107282;28;20046;-37